Terminal Aerodrome Forecast
Issued by NWS

Home | Current Version | Previous Version | Text Only | Print | Product List | Glossary On
Versions: 1 2 3 4 5 6 7 8 9 10 11 12 13 14 15 16
507
FTUS45 KRIW 260538
TAFCPR
TAF
KCPR 260538Z 2606/2706 VRB05KT P6SM FEW015 BKN045
     FM260800 22009KT P6SM SCT050
     FM261500 23013KT P6SM FEW050 SCT250
     FM261900 27011G17KT P6SM SCT050 BKN080
     FM270200 02007KT P6SM FEW020 BKN070=

USA.gov is the U.S. government's official web portal to all federal, state and local government web resources and services.